sensor_id;sensor_type;location;lat;lon;timestamp;pressure;altitude;pressure_sealevel;temperature;humidity
74637;BME280;63141;54.616;39.754;2023-01-01T00:00:55;100096.47;;;25.13;34.16
74637;BME280;63141;54.616;39.754;2023-01-01T00:04:02;100087.53;;;25.14;33.76
74637;BME280;63141;54.616;39.754;2023-01-01T00:07:03;100078.06;;;25.08;33.53
74637;BME280;63141;54.616;39.754;2023-01-01T00:10:05;100069.00;;;24.95;34.05
74637;BME280;63141;54.616;39.754;2023-01-01T00:13:24;100050.97;;;24.83;33.61
74637;BME280;63141;54.616;39.754;2023-01-01T00:16:26;100055.88;;;24.75;34.04
74637;BME280;63141;54.616;39.754;2023-01-01T00:19:27;100045.75;;;24.64;33.78
74637;BME280;63141;54.616;39.754;2023-01-01T00:22:28;100043.50;;;24.56;33.53
74637;BME280;63141;54.616;39.754;2023-01-01T00:25:30;100045.63;;;24.50;33.58
74637;BME280;63141;54.616;39.754;2023-01-01T00:28:32;100030.03;;;24.42;33.57
74637;BME280;63141;54.616;39.754;2023-01-01T00:31:33;100032.22;;;24.34;33.32
74637;BME280;63141;54.616;39.754;2023-01-01T00:34:35;100024.44;;;24.29;33.35
74637;BME280;63141;54.616;39.754;2023-01-01T00:37:36;100024.69;;;24.24;33.36
74637;BME280;63141;54.616;39.754;2023-01-01T00:40:37;100016.16;;;24.18;33.38
74637;BME280;63141;54.616;39.754;2023-01-01T00:43:39;100010.09;;;24.14;33.11
74637;BME280;63141;54.616;39.754;2023-01-01T00:46:41;100001.50;;;24.09;33.47
74637;BME280;63141;54.616;39.754;2023-01-01T00:49:42;100008.69;;;24.07;33.40
74637;BME280;63141;54.616;39.754;2023-01-01T00:52:43;99999.00;;;24.06;33.17
74637;BME280;63141;54.616;39.754;2023-01-01T00:55:47;99998.16;;;24.06;33.15
74637;BME280;63141;54.616;39.754;2023-01-01T00:58:48;100003.53;;;24.04;33.11
74637;BME280;63141;54.616;39.754;2023-01-01T01:01:50;99989.44;;;24.02;33.12
74637;BME280;63141;54.616;39.754;2023-01-01T01:04:56;99983.34;;;24.00;32.95
74637;BME280;63141;54.616;39.754;2023-01-01T01:07:58;99987.03;;;23.97;32.80
74637;BME280;63141;54.616;39.754;2023-01-01T01:11:21;99996.03;;;23.95;32.62
74637;BME280;63141;54.616;39.754;2023-01-01T01:14:23;99996.19;;;23.92;32.81
74637;BME280;63141;54.616;39.754;2023-01-01T01:17:24;99992.63;;;23.91;32.69
74637;BME280;63141;54.616;39.754;2023-01-01T01:20:26;99983.91;;;23.89;32.53
74637;BME280;63141;54.616;39.754;2023-01-01T01:23:27;99988.44;;;23.87;32.49
74637;BME280;63141;54.616;39.754;2023-01-01T01:26:30;99976.16;;;23.85;32.24
74637;BME280;63141;54.616;39.754;2023-01-01T01:29:32;99971.75;;;23.83;32.59
74637;BME280;63141;54.616;39.754;2023-01-01T01:32:34;99947.97;;;23.80;32.62
74637;BME280;63141;54.616;39.754;2023-01-01T01:35:40;99960.50;;;23.78;32.33
74637;BME280;63141;54.616;39.754;2023-01-01T01:38:41;99952.59;;;23.77;32.30
74637;BME280;63141;54.616;39.754;2023-01-01T01:41:43;99954.38;;;23.76;32.43
74637;BME280;63141;54.616;39.754;2023-01-01T01:47:48;99932.34;;;23.73;32.32
74637;BME280;63141;54.616;39.754;2023-01-01T01:50:51;99926.19;;;23.72;32.26
74637;BME280;63141;54.616;39.754;2023-01-01T01:57:15;99913.91;;;23.70;32.19
74637;BME280;63141;54.616;39.754;2023-01-01T02:00:38;99913.97;;;23.68;32.12
74637;BME280;63141;54.616;39.754;2023-01-01T02:03:50;99909.63;;;23.67;32.20
74637;BME280;63141;54.616;39.754;2023-01-01T02:10:16;99908.03;;;23.63;32.13
74637;BME280;63141;54.616;39.754;2023-01-01T02:13:17;99893.94;;;23.61;31.91
74637;BME280;63141;54.616;39.754;2023-01-01T02:23:08;99885.34;;;23.56;31.92
74637;BME280;63141;54.616;39.754;2023-01-01T02:29:45;99870.44;;;23.53;31.94
74637;BME280;63141;54.616;39.754;2023-01-01T02:33:01;99874.00;;;23.52;31.98
74637;BME280;63141;54.616;39.754;2023-01-01T02:36:06;99859.97;;;23.50;31.85
74637;BME280;63141;54.616;39.754;2023-01-01T02:39:09;99859.06;;;23.50;31.95
74637;BME280;63141;54.616;39.754;2023-01-01T02:42:11;99856.50;;;23.48;31.90
74637;BME280;63141;54.616;39.754;2023-01-01T02:45:13;99851.25;;;23.47;31.71
74637;BME280;63141;54.616;39.754;2023-01-01T02:58:38;99832.81;;;23.44;31.71
74637;BME280;63141;54.616;39.754;2023-01-01T03:02:11;99824.91;;;23.42;31.84
74637;BME280;63141;54.616;39.754;2023-01-01T03:12:49;99834.81;;;23.38;31.83
74637;BME280;63141;54.616;39.754;2023-01-01T03:16:01;99824.19;;;23.38;31.84
74637;BME280;63141;54.616;39.754;2023-01-01T03:19:15;99817.16;;;23.37;31.42
74637;BME280;63141;54.616;39.754;2023-01-01T03:22:19;99802.16;;;23.36;31.70
74637;BME280;63141;54.616;39.754;2023-01-01T03:25:28;99804.81;;;23.36;31.55
74637;BME280;63141;54.616;39.754;2023-01-01T03:28:35;99803.09;;;23.35;31.58
74637;BME280;63141;54.616;39.754;2023-01-01T03:35:01;99792.53;;;23.34;31.59
74637;BME280;63141;54.616;39.754;2023-01-01T03:38:08;99789.03;;;23.33;31.49
74637;BME280;63141;54.616;39.754;2023-01-01T03:41:20;99777.53;;;23.33;31.39
74637;BME280;63141;54.616;39.754;2023-01-01T03:44:31;99777.53;;;23.33;31.35
74637;BME280;63141;54.616;39.754;2023-01-01T03:47:33;99772.28;;;23.31;31.54
74637;BME280;63141;54.616;39.754;2023-01-01T03:53:58;99760.81;;;23.31;31.33
74637;BME280;63141;54.616;39.754;2023-01-01T04:00:20;99738.72;;;23.30;31.38
74637;BME280;63141;54.616;39.754;2023-01-01T04:03:32;99736.97;;;23.29;31.52
74637;BME280;63141;54.616;39.754;2023-01-01T04:06:34;99721.97;;;23.28;31.45
74637;BME280;63141;54.616;39.754;2023-01-01T04:09:36;99724.63;;;23.28;31.38
74637;BME280;63141;54.616;39.754;2023-01-01T04:12:39;99721.13;;;23.28;31.46
74637;BME280;63141;54.616;39.754;2023-01-01T04:15:40;99716.66;;;23.28;31.42
74637;BME280;63141;54.616;39.754;2023-01-01T04:18:42;99701.66;;;23.27;31.38
74637;BME280;63141;54.616;39.754;2023-01-01T04:21:43;99705.19;;;23.28;31.42
74637;BME280;63141;54.616;39.754;2023-01-01T04:24:44;99693.66;;;23.27;31.35
74637;BME280;63141;54.616;39.754;2023-01-01T04:27:46;99691.97;;;23.26;31.41
74637;BME280;63141;54.616;39.754;2023-01-01T04:30:47;99682.19;;;23.27;31.51
74637;BME280;63141;54.616;39.754;2023-01-01T04:33:52;99682.19;;;23.27;31.39
74637;BME280;63141;54.616;39.754;2023-01-01T04:36:54;99676.03;;;23.26;31.51
74637;BME280;63141;54.616;39.754;2023-01-01T04:39:55;99676.03;;;23.26;31.52
74637;BME280;63141;54.616;39.754;2023-01-01T04:42:56;99670.72;;;23.26;31.36
74637;BME280;63141;54.616;39.754;2023-01-01T04:45:59;99675.16;;;23.26;31.36
74637;BME280;63141;54.616;39.754;2023-01-01T04:49:01;99658.38;;;23.25;31.32
74637;BME280;63141;54.616;39.754;2023-01-01T04:52:02;99661.03;;;23.25;31.72
74637;BME280;63141;54.616;39.754;2023-01-01T04:55:04;99656.56;;;23.26;31.35
74637;BME280;63141;54.616;39.754;2023-01-01T04:58:06;99653.06;;;23.25;31.48
74637;BME280;63141;54.616;39.754;2023-01-01T05:01:20;99648.66;;;23.24;31.50
74637;BME280;63141;54.616;39.754;2023-01-01T05:04:22;99646.97;;;23.23;31.25
74637;BME280;63141;54.616;39.754;2023-01-01T05:07:26;99650.47;;;23.24;31.38
74637;BME280;63141;54.616;39.754;2023-01-01T05:10:28;99633.69;;;23.23;31.46
74637;BME280;63141;54.616;39.754;2023-01-01T05:13:29;99628.38;;;23.23;31.38
74637;BME280;63141;54.616;39.754;2023-01-01T05:16:34;99633.69;;;23.23;31.21
74637;BME280;63141;54.616;39.754;2023-01-01T05:19:35;99623.91;;;23.24;31.32
74637;BME280;63141;54.616;39.754;2023-01-01T05:22:37;99616.00;;;23.22;31.21
74637;BME280;63141;54.616;39.754;2023-01-01T05:25:38;99624.94;;;23.21;31.28
74637;BME280;63141;54.616;39.754;2023-01-01T05:28:39;99633.75;;;23.21;30.99
74637;BME280;63141;54.616;39.754;2023-01-01T05:31:41;99630.25;;;23.21;31.13
74637;BME280;63141;54.616;39.754;2023-01-01T05:34:43;99630.25;;;23.21;31.24
74637;BME280;63141;54.616;39.754;2023-01-01T05:37:44;99632.91;;;23.21;31.02
74637;BME280;63141;54.616;39.754;2023-01-01T05:40:45;99623.19;;;23.20;31.00
74637;BME280;63141;54.616;39.754;2023-01-01T05:43:47;99618.78;;;23.20;30.93
74637;BME280;63141;54.616;39.754;2023-01-01T05:46:49;99612.56;;;23.20;30.79
74637;BME280;63141;54.616;39.754;2023-01-01T05:49:51;99616.97;;;23.21;30.78
74637;BME280;63141;54.616;39.754;2023-01-01T05:52:52;99605.56;;;23.19;30.96
74637;BME280;63141;54.616;39.754;2023-01-01T05:55:53;99615.22;;;23.20;30.88
74637;BME280;63141;54.616;39.754;2023-01-01T05:58:55;99600.16;;;23.20;30.80
74637;BME280;63141;54.616;39.754;2023-01-01T06:01:59;99620.53;;;23.20;30.94
74637;BME280;63141;54.616;39.754;2023-01-01T06:05:00;99607.25;;;23.20;30.80
74637;BME280;63141;54.616;39.754;2023-01-01T06:08:05;99602.91;;;23.19;30.81
74637;BME280;63141;54.616;39.754;2023-01-01T06:11:09;99591.31;;;23.20;30.87
74637;BME280;63141;54.616;39.754;2023-01-01T06:14:11;99586.88;;;23.20;31.01
74637;BME280;63141;54.616;39.754;2023-01-01T06:17:13;99584.22;;;23.20;31.15
74637;BME280;63141;54.616;39.754;2023-01-01T06:20:14;99571.81;;;23.21;31.10
74637;BME280;63141;54.616;39.754;2023-01-01T06:23:15;99567.34;;;23.21;31.12
74637;BME280;63141;54.616;39.754;2023-01-01T06:26:19;99575.31;;;23.21;31.11
74637;BME280;63141;54.616;39.754;2023-01-01T06:29:21;99564.75;;;23.20;31.00
74637;BME280;63141;54.616;39.754;2023-01-01T06:32:22;99567.41;;;23.20;31.19
74637;BME280;63141;54.616;39.754;2023-01-01T06:35:23;99563.06;;;23.19;31.08
74637;BME280;63141;54.616;39.754;2023-01-01T06:38:24;99555.94;;;23.19;30.96
74637;BME280;63141;54.616;39.754;2023-01-01T06:41:26;99557.75;;;23.19;31.13
74637;BME280;63141;54.616;39.754;2023-01-01T06:44:28;99568.38;;;23.19;31.01
74637;BME280;63141;54.616;39.754;2023-01-01T06:47:32;99563.06;;;23.19;30.82
74637;BME280;63141;54.616;39.754;2023-01-01T06:50:34;99555.16;;;23.17;30.88
74637;BME280;63141;54.616;39.754;2023-01-01T06:53:35;99564.94;;;23.17;30.75
74637;BME280;63141;54.616;39.754;2023-01-01T06:56:37;99574.69;;;23.16;30.75
74637;BME280;63141;54.616;39.754;2023-01-01T06:59:39;99562.28;;;23.17;30.89
74637;BME280;63141;54.616;39.754;2023-01-01T07:02:42;99550.78;;;23.16;30.82
74637;BME280;63141;54.616;39.754;2023-01-01T07:05:44;99556.19;;;23.15;30.80
74637;BME280;63141;54.616;39.754;2023-01-01T07:08:47;99557.91;;;23.16;30.55
74637;BME280;63141;54.616;39.754;2023-01-01T07:11:49;99550.88;;;23.15;30.67
74637;BME280;63141;54.616;39.754;2023-01-01T07:14:50;99556.19;;;23.15;30.67
74637;BME280;63141;54.616;39.754;2023-01-01T07:17:51;99542.03;;;23.14;30.58
74637;BME280;63141;54.616;39.754;2023-01-01T07:20:57;99540.25;;;23.15;30.75
74637;BME280;63141;54.616;39.754;2023-01-01T07:27:01;99518.22;;;23.13;30.56
74637;BME280;63141;54.616;39.754;2023-01-01T07:30:02;99521.66;;;23.15;30.77
74637;BME280;63141;54.616;39.754;2023-01-01T07:33:04;99511.97;;;23.14;30.62
74637;BME280;63141;54.616;39.754;2023-01-01T07:36:24;99519.00;;;23.15;30.76
74637;BME280;63141;54.616;39.754;2023-01-01T07:39:25;99525.25;;;23.14;30.76
74637;BME280;63141;54.616;39.754;2023-01-01T07:45:46;99534.94;;;23.15;30.84
74637;BME280;63141;54.616;39.754;2023-01-01T07:48:48;99526.97;;;23.15;30.83
74637;BME280;63141;54.616;39.754;2023-01-01T07:51:49;99527.81;;;23.15;30.81
74637;BME280;63141;54.616;39.754;2023-01-01T07:54:50;99522.50;;;23.15;30.83
74637;BME280;63141;54.616;39.754;2023-01-01T07:57:52;99511.97;;;23.14;30.93
74637;BME280;63141;54.616;39.754;2023-01-01T08:00:53;99517.19;;;23.15;30.69
74637;BME280;63141;54.616;39.754;2023-01-01T08:03:59;99515.41;;;23.16;30.74
74637;BME280;63141;54.616;39.754;2023-01-01T08:07:00;99495.09;;;23.15;30.80
74637;BME280;63141;54.616;39.754;2023-01-01T08:10:03;99487.97;;;23.15;30.69
74637;BME280;63141;54.616;39.754;2023-01-01T08:13:06;99488.84;;;23.16;30.80
74637;BME280;63141;54.616;39.754;2023-01-01T08:16:08;99484.38;;;23.16;31.22
74637;BME280;63141;54.616;39.754;2023-01-01T08:19:09;99489.53;;;23.19;32.15
74637;BME280;63141;54.616;39.754;2023-01-01T08:22:10;99490.22;;;23.23;33.04
74637;BME280;63141;54.616;39.754;2023-01-01T08:25:12;99487.38;;;23.26;33.19
74637;BME280;63141;54.616;39.754;2023-01-01T08:28:14;99477.53;;;23.28;33.85
74637;BME280;63141;54.616;39.754;2023-01-01T08:31:15;99465.88;;;23.31;33.94
74637;BME280;63141;54.616;39.754;2023-01-01T08:34:16;99464.00;;;23.33;34.20
74637;BME280;63141;54.616;39.754;2023-01-01T08:37:18;99455.06;;;23.34;34.28
74637;BME280;63141;54.616;39.754;2023-01-01T08:40:40;99440.00;;;23.34;34.28
74637;BME280;63141;54.616;39.754;2023-01-01T08:43:41;99435.53;;;23.35;33.88
74637;BME280;63141;54.616;39.754;2023-01-01T08:46:42;99431.06;;;23.35;33.72
74637;BME280;63141;54.616;39.754;2023-01-01T08:49:44;99426.59;;;23.36;33.92
74637;BME280;63141;54.616;39.754;2023-01-01T08:52:45;99416.84;;;23.36;33.65
74637;BME280;63141;54.616;39.754;2023-01-01T08:56:01;99413.06;;;23.40;33.80
74637;BME280;63141;54.616;39.754;2023-01-01T08:59:03;99413.84;;;23.42;34.19
74637;BME280;63141;54.616;39.754;2023-01-01T09:02:05;99414.44;;;23.48;34.73
74637;BME280;63141;54.616;39.754;2023-01-01T09:05:12;99410.50;;;23.55;34.67
74637;BME280;63141;54.616;39.754;2023-01-01T09:08:14;99398.31;;;23.67;35.00
74637;BME280;63141;54.616;39.754;2023-01-01T09:11:26;99396.66;;;23.80;35.21
74637;BME280;63141;54.616;39.754;2023-01-01T09:14:28;99399.25;;;23.96;35.75
74637;BME280;63141;54.616;39.754;2023-01-01T09:17:29;99386.88;;;24.11;36.11
74637;BME280;63141;54.616;39.754;2023-01-01T09:20:30;99390.38;;;24.25;36.67
74637;BME280;63141;54.616;39.754;2023-01-01T09:23:51;99386.03;;;24.39;37.01
74637;BME280;63141;54.616;39.754;2023-01-01T09:26:52;99395.34;;;24.46;38.34
74637;BME280;63141;54.616;39.754;2023-01-01T09:29:53;99390.47;;;24.54;39.28
74637;BME280;63141;54.616;39.754;2023-01-01T09:32:55;99386.25;;;24.64;39.80
74637;BME280;63141;54.616;39.754;2023-01-01T09:36:10;99390.84;;;24.77;40.59
74637;BME280;63141;54.616;39.754;2023-01-01T09:39:14;99390.25;;;24.86;40.93
74637;BME280;63141;54.616;39.754;2023-01-01T09:42:50;99393.09;;;24.97;41.62
74637;BME280;63141;54.616;39.754;2023-01-01T09:45:58;99389.84;;;25.06;42.02
74637;BME280;63141;54.616;39.754;2023-01-01T09:49:15;99387.34;;;25.18;42.53
74637;BME280;63141;54.616;39.754;2023-01-01T09:52:56;99387.53;;;25.29;43.52
74637;BME280;63141;54.616;39.754;2023-01-01T09:56:02;99357.63;;;25.38;44.14
74637;BME280;63141;54.616;39.754;2023-01-01T09:59:07;99356.25;;;25.45;44.69
74637;BME280;63141;54.616;39.754;2023-01-01T10:05:49;99350.09;;;25.58;44.71
74637;BME280;63141;54.616;39.754;2023-01-01T10:09:31;99356.09;;;25.61;44.67
74637;BME280;63141;54.616;39.754;2023-01-01T10:12:47;99355.88;;;25.64;44.07
74637;BME280;63141;54.616;39.754;2023-01-01T10:22:37;99345.00;;;25.67;43.07
74637;BME280;63141;54.616;39.754;2023-01-01T10:25:41;99333.00;;;25.47;42.57
74637;BME280;63141;54.616;39.754;2023-01-01T10:28:50;99335.94;;;25.30;42.42
74637;BME280;63141;54.616;39.754;2023-01-01T10:31:55;99324.19;;;25.20;42.42
74637;BME280;63141;54.616;39.754;2023-01-01T10:34:58;99312.38;;;25.09;42.04
74637;BME280;63141;54.616;39.754;2023-01-01T10:38:02;99308.50;;;25.01;41.93
74637;BME280;63141;54.616;39.754;2023-01-01T10:41:09;99301.00;;;24.93;41.29
74637;BME280;63141;54.616;39.754;2023-01-01T10:44:12;99296.28;;;24.84;41.55
74637;BME280;63141;54.616;39.754;2023-01-01T10:47:26;99285.16;;;24.77;41.13
74637;BME280;63141;54.616;39.754;2023-01-01T10:50:49;99288.13;;;24.73;40.72
74637;BME280;63141;54.616;39.754;2023-01-01T10:53:52;99268.09;;;24.67;40.49
74637;BME280;63141;54.616;39.754;2023-01-01T10:56:55;99278.06;;;24.63;40.18
74637;BME280;63141;54.616;39.754;2023-01-01T11:03:37;99261.81;;;24.54;39.26
74637;BME280;63141;54.616;39.754;2023-01-01T11:06:57;99263.06;;;24.48;39.12
74637;BME280;63141;54.616;39.754;2023-01-01T11:10:00;99257.22;;;24.41;38.31
74637;BME280;63141;54.616;39.754;2023-01-01T11:13:16;99258.28;;;24.39;37.38
74637;BME280;63141;54.616;39.754;2023-01-01T11:16:18;99253.25;;;24.34;37.09
74637;BME280;63141;54.616;39.754;2023-01-01T11:19:26;99235.69;;;24.32;36.94
74637;BME280;63141;54.616;39.754;2023-01-01T11:22:43;99245.56;;;24.30;36.54
74637;BME280;63141;54.616;39.754;2023-01-01T11:26:00;99246.69;;;24.25;36.56
74637;BME280;63141;54.616;39.754;2023-01-01T11:29:27;99231.91;;;24.21;36.55
74637;BME280;63141;54.616;39.754;2023-01-01T11:32:34;99229.41;;;24.18;36.09
74637;BME280;63141;54.616;39.754;2023-01-01T11:39:27;99223.75;;;24.10;36.10
74637;BME280;63141;54.616;39.754;2023-01-01T11:42:30;99220.41;;;24.07;35.93
74637;BME280;63141;54.616;39.754;2023-01-01T11:45:38;99213.47;;;24.04;35.71
74637;BME280;63141;54.616;39.754;2023-01-01T11:48:41;99217.19;;;24.01;35.48
74637;BME280;63141;54.616;39.754;2023-01-01T11:51:43;99213.75;;;23.99;35.46
74637;BME280;63141;54.616;39.754;2023-01-01T11:54:45;99213.00;;;23.97;35.40
74637;BME280;63141;54.616;39.754;2023-01-01T11:57:56;99204.38;;;23.94;35.60
74637;BME280;63141;54.616;39.754;2023-01-01T12:01:38;99203.63;;;23.92;35.38
74637;BME280;63141;54.616;39.754;2023-01-01T12:07:49;99203.91;;;23.87;35.41
74637;BME280;63141;54.616;39.754;2023-01-01T12:10:57;99195.16;;;23.85;35.17
74637;BME280;63141;54.616;39.754;2023-01-01T12:14:18;99192.59;;;23.83;35.29
74637;BME280;63141;54.616;39.754;2023-01-01T12:17:27;99188.22;;;23.82;35.17
74637;BME280;63141;54.616;39.754;2023-01-01T12:20:39;99174.25;;;23.79;35.09
74637;BME280;63141;54.616;39.754;2023-01-01T12:23:43;99169.03;;;23.77;35.03
74637;BME280;63141;54.616;39.754;2023-01-01T12:33:48;99164.84;;;23.73;34.71
74637;BME280;63141;54.616;39.754;2023-01-01T12:44:07;99152.69;;;23.69;34.23
74637;BME280;63141;54.616;39.754;2023-01-01T12:50:53;99157.22;;;23.67;34.05
74637;BME280;63141;54.616;39.754;2023-01-01T12:58:01;99147.72;;;23.63;33.88
74637;BME280;63141;54.616;39.754;2023-01-01T13:01:20;99149.63;;;23.61;33.99
74637;BME280;63141;54.616;39.754;2023-01-01T13:04:28;99141.66;;;23.61;33.47
74637;BME280;63141;54.616;39.754;2023-01-01T13:07:34;99140.88;;;23.59;33.52
74637;BME280;63141;54.616;39.754;2023-01-01T13:10:43;99132.91;;;23.59;33.47
74637;BME280;63141;54.616;39.754;2023-01-01T13:14:04;99134.72;;;23.58;33.36
74637;BME280;63141;54.616;39.754;2023-01-01T13:20:46;99123.34;;;23.56;33.23
74637;BME280;63141;54.616;39.754;2023-01-01T13:23:59;99130.47;;;23.56;33.16
74637;BME280;63141;54.616;39.754;2023-01-01T13:27:01;99132.28;;;23.55;33.05
74637;BME280;63141;54.616;39.754;2023-01-01T13:33:36;99112.06;;;23.53;32.71
74637;BME280;63141;54.616;39.754;2023-01-01T13:36:39;99107.66;;;23.52;32.67
74637;BME280;63141;54.616;39.754;2023-01-01T13:39:56;99104.94;;;23.53;32.59
74637;BME280;63141;54.616;39.754;2023-01-01T13:46:02;99105.97;;;23.51;32.52
74637;BME280;63141;54.616;39.754;2023-01-01T13:59:41;99099.69;;;23.52;32.31
74637;BME280;63141;54.616;39.754;2023-01-01T14:02:45;99105.00;;;23.52;32.09
74637;BME280;63141;54.616;39.754;2023-01-01T14:05:58;99090.03;;;23.51;32.21
74637;BME280;63141;54.616;39.754;2023-01-01T14:09:06;99092.69;;;23.51;32.24
74637;BME280;63141;54.616;39.754;2023-01-01T14:12:19;99083.88;;;23.50;32.25
74637;BME280;63141;54.616;39.754;2023-01-01T14:15:25;99094.50;;;23.50;32.35
74637;BME280;63141;54.616;39.754;2023-01-01T14:18:33;99083.00;;;23.50;32.11
74637;BME280;63141;54.616;39.754;2023-01-01T14:21:37;99092.78;;;23.49;31.89
74637;BME280;63141;54.616;39.754;2023-01-01T14:24:44;99094.50;;;23.50;32.03
74637;BME280;63141;54.616;39.754;2023-01-01T14:27:47;99086.63;;;23.49;31.88
74637;BME280;63141;54.616;39.754;2023-01-01T14:30:49;99085.66;;;23.50;31.76
74637;BME280;63141;54.616;39.754;2023-01-01T14:33:52;99080.34;;;23.50;32.07
74637;BME280;63141;54.616;39.754;2023-01-01T14:40:36;99060.78;;;23.51;31.76
74637;BME280;63141;54.616;39.754;2023-01-01T14:43:40;99045.78;;;23.50;31.71
74637;BME280;63141;54.616;39.754;2023-01-01T14:46:47;99040.47;;;23.50;31.88
74637;BME280;63141;54.616;39.754;2023-01-01T14:49:50;99042.19;;;23.51;32.04
74637;BME280;63141;54.616;39.754;2023-01-01T14:59:29;99036.88;;;23.51;31.87
74637;BME280;63141;54.616;39.754;2023-01-01T15:02:37;99032.50;;;23.50;31.89
74637;BME280;63141;54.616;39.754;2023-01-01T15:05:41;99025.50;;;23.49;32.14
74637;BME280;63141;54.616;39.754;2023-01-01T15:08:49;99038.78;;;23.49;32.14
74637;BME280;63141;54.616;39.754;2023-01-01T15:11:54;99050.25;;;23.49;32.14
74637;BME280;63141;54.616;39.754;2023-01-01T15:14:56;99048.44;;;23.50;32.12
74637;BME280;63141;54.616;39.754;2023-01-01T15:17:58;99047.59;;;23.49;32.14
74637;BME280;63141;54.616;39.754;2023-01-01T15:21:00;99035.16;;;23.50;32.38
74637;BME280;63141;54.616;39.754;2023-01-01T15:24:09;99036.03;;;23.50;32.34
74637;BME280;63141;54.616;39.754;2023-01-01T15:27:24;99031.56;;;23.51;32.20
74637;BME280;63141;54.616;39.754;2023-01-01T15:30:31;99023.59;;;23.51;32.14
74637;BME280;63141;54.616;39.754;2023-01-01T15:33:36;99024.53;;;23.50;32.26
74637;BME280;63141;54.616;39.754;2023-01-01T15:37:04;99013.91;;;23.50;32.28
74637;BME280;63141;54.616;39.754;2023-01-01T15:43:33;99008.59;;;23.50;32.11
74637;BME280;63141;54.616;39.754;2023-01-01T15:47:01;99005.91;;;23.50;32.31
74637;BME280;63141;54.616;39.754;2023-01-01T15:53:27;98994.53;;;23.48;32.22
74637;BME280;63141;54.616;39.754;2023-01-01T15:56:31;98987.31;;;23.50;32.15
74637;BME280;63141;54.616;39.754;2023-01-01T15:59:36;98992.84;;;23.47;32.33
74637;BME280;63141;54.616;39.754;2023-01-01T16:02:41;98994.53;;;23.48;32.07
74637;BME280;63141;54.616;39.754;2023-01-01T16:05:46;98987.53;;;23.47;32.30
74637;BME280;63141;54.616;39.754;2023-01-01T16:08:52;98984.88;;;23.47;32.15
74637;BME280;63141;54.616;39.754;2023-01-01T16:11:55;98992.84;;;23.47;32.00
74637;BME280;63141;54.616;39.754;2023-01-01T16:14:57;98976.91;;;23.47;32.13
74637;BME280;63141;54.616;39.754;2023-01-01T16:17:58;98983.19;;;23.46;32.18
74637;BME280;63141;54.616;39.754;2023-01-01T16:21:00;98980.41;;;23.47;32.21
74637;BME280;63141;54.616;39.754;2023-01-01T16:24:02;98979.63;;;23.45;31.94
74637;BME280;63141;54.616;39.754;2023-01-01T16:27:04;98990.19;;;23.47;32.20
74637;BME280;63141;54.616;39.754;2023-01-01T16:30:06;98996.47;;;23.46;32.05
74637;BME280;63141;54.616;39.754;2023-01-01T16:33:13;98984.09;;;23.45;31.88
74637;BME280;63141;54.616;39.754;2023-01-01T16:36:34;98970.72;;;23.46;32.10
74637;BME280;63141;54.616;39.754;2023-01-01T16:39:35;98950.41;;;23.45;31.72
74637;BME280;63141;54.616;39.754;2023-01-01T16:42:36;98962.84;;;23.45;31.92
74637;BME280;63141;54.616;39.754;2023-01-01T16:48:58;98938.00;;;23.46;31.90
74637;BME280;63141;54.616;39.754;2023-01-01T16:52:00;98931.94;;;23.44;31.75
74637;BME280;63141;54.616;39.754;2023-01-01T16:55:01;98936.28;;;23.45;31.96
74637;BME280;63141;54.616;39.754;2023-01-01T16:58:03;98942.34;;;23.47;31.98
74637;BME280;63141;54.616;39.754;2023-01-01T17:01:04;98927.38;;;23.46;31.85
74637;BME280;63141;54.616;39.754;2023-01-01T17:04:11;98927.38;;;23.46;32.31
74637;BME280;63141;54.616;39.754;2023-01-01T17:07:13;98919.28;;;23.47;33.16
74637;BME280;63141;54.616;39.754;2023-01-01T17:10:15;98916.53;;;23.49;33.99
74637;BME280;63141;54.616;39.754;2023-01-01T17:13:16;98923.53;;;23.50;34.75
74637;BME280;63141;54.616;39.754;2023-01-01T17:16:17;98926.94;;;23.52;35.45
74637;BME280;63141;54.616;39.754;2023-01-01T17:19:19;98925.06;;;23.54;36.05
74637;BME280;63141;54.616;39.754;2023-01-01T17:22:20;98933.78;;;23.56;35.96
74637;BME280;63141;54.616;39.754;2023-01-01T17:28:42;98924.84;;;23.57;35.26
74637;BME280;63141;54.616;39.754;2023-01-01T17:31:43;98914.22;;;23.57;35.02
74637;BME280;63141;54.616;39.754;2023-01-01T17:34:45;98925.06;;;23.54;34.83
74637;BME280;63141;54.616;39.754;2023-01-01T17:37:46;98926.88;;;23.53;34.71
74637;BME280;63141;54.616;39.754;2023-01-01T17:40:48;98923.44;;;23.51;34.31
74637;BME280;63141;54.616;39.754;2023-01-01T17:43:50;98917.28;;;23.51;34.48
74637;BME280;63141;54.616;39.754;2023-01-01T17:46:51;98907.59;;;23.50;34.44
74637;BME280;63141;54.616;39.754;2023-01-01T17:49:54;98899.75;;;23.48;34.22
74637;BME280;63141;54.616;39.754;2023-01-01T17:52:56;98909.50;;;23.48;34.19
74637;BME280;63141;54.616;39.754;2023-01-01T17:55:57;98893.56;;;23.48;34.23
74637;BME280;63141;54.616;39.754;2023-01-01T17:58:58;98909.50;;;23.48;33.94
74637;BME280;63141;54.616;39.754;2023-01-01T18:02:02;98901.66;;;23.46;33.81
74637;BME280;63141;54.616;39.754;2023-01-01T18:05:04;98895.47;;;23.46;33.67
74637;BME280;63141;54.616;39.754;2023-01-01T18:08:08;98889.28;;;23.45;33.53
74637;BME280;63141;54.616;39.754;2023-01-01T18:11:09;98889.28;;;23.45;33.49
74637;BME280;63141;54.616;39.754;2023-01-01T18:14:11;98886.75;;;23.44;33.40
74637;BME280;63141;54.616;39.754;2023-01-01T18:17:12;98875.25;;;23.43;33.32
74637;BME280;63141;54.616;39.754;2023-01-01T18:20:14;98863.78;;;23.42;33.21
74637;BME280;63141;54.616;39.754;2023-01-01T18:23:15;98867.41;;;23.41;33.13
74637;BME280;63141;54.616;39.754;2023-01-01T18:26:18;98858.47;;;23.42;33.01
74637;BME280;63141;54.616;39.754;2023-01-01T18:29:20;98853.28;;;23.41;33.24